^^
Meteo Knjazevac Station Historical Data
Daily Summary for January 24, 2021 Units:  Metric    English   Both
Daily Weekly Monthly Yearly Custom
  High: Low: Average:
Temperature: 26.4 °C 15.1 °C 20.6 °C
Dew Point: 18 °C 11.9 °C 14.8 °C
Humidity: 86% 55% 70%
Wind Speed: 16.1km/h 0km/h 4km/h
Wind Gust: 32.2km/h - -
Wind- - SW
Pressure: 1026 hPa 1018.8 hPa -
Precipitation: 0 mm    
Historical Graphs
 
 
Tabular Data for January 24, 2021
Time Temperature Dew Point Pressure Wind Wind Speed Wind Gust Humidity Rainfall Rate (Hourly) solar Conditions
00:00 22.1 °C 13.2 °C 1018.8 hPa West 9.7 km/h 12.9 km/h 57% 0 mm 0 W/m2
00:10 21.9 °C 13.8 °C 1019.2 hPa West 14.5 km/h 32.2 km/h 60% 0 mm 0 W/m2
00:20 21.4 °C 14.1 °C 1019.5 hPa WSW 14.5 km/h 27.4 km/h 63% 0 mm 0 W/m2
00:30 20.9 °C 14.1 °C 1019.5 hPa West 12.9 km/h 27.4 km/h 65% 0 mm 0 W/m2
00:40 20.6 °C 13.8 °C 1019.9 hPa West 9.7 km/h 17.7 km/h 65% 0 mm 0 W/m2
00:50 20.4 °C 14.1 °C 1020.2 hPa WNW 9.7 km/h 19.3 km/h 67% 0 mm 0 W/m2
01:00 20.2 °C 13.9 °C 1020.5 hPa WNW 3.2 km/h 12.9 km/h 67% 0 mm 0 W/m2
01:10 20 °C 13.7 °C 1020.9 hPa SW 9.7 km/h 14.5 km/h 67% 0 mm 0 W/m2
01:20 19.7 °C 13.4 °C 1020.5 hPa WSW 12.9 km/h 24.1 km/h 67% 0 mm 0 W/m2
01:30 19.5 °C 13.2 °C 1020.9 hPa WSW 16.1 km/h 24.1 km/h 67% 0 mm 0 W/m2
01:40 19.2 °C 13.2 °C 1020.9 hPa WSW 8 km/h 22.5 km/h 68% 0 mm 0 W/m2
01:50 18.9 °C 13.3 °C 1021.2 hPa WSW 11.3 km/h 20.9 km/h 70% 0 mm 0 W/m2
02:00 18.5 °C 13.3 °C 1021.2 hPa SW 12.9 km/h 22.5 km/h 72% 0 mm 0 W/m2
02:10 18.1 °C 13.2 °C 1021.2 hPa SW 16.1 km/h 24.1 km/h 73% 0 mm 0 W/m2
02:20 17.8 °C 13.1 °C 1021.6 hPa SW 14.5 km/h 20.9 km/h 74% 0 mm 0 W/m2
02:30 17.6 °C 12.9 °C 1021.6 hPa SW 12.9 km/h 19.3 km/h 74% 0 mm 0 W/m2
02:40 17.3 °C 12.8 °C 1021.9 hPa SW 12.9 km/h 19.3 km/h 75% 0 mm 0 W/m2
02:50 17 °C 12.6 °C 1021.9 hPa SW 9.7 km/h 20.9 km/h 75% 0 mm 0 W/m2
03:00 16.9 °C 12.4 °C 1021.9 hPa WSW 11.3 km/h 17.7 km/h 75% 0 mm 0 W/m2
03:10 16.7 °C 12.2 °C 1022.2 hPa WSW 8 km/h 14.5 km/h 75% 0 mm 0 W/m2
03:20 16.4 °C 12.3 °C 1022.2 hPa SW 3.2 km/h 12.9 km/h 77% 0 mm 0 W/m2
03:30 16.2 °C 12.3 °C 1022.2 hPa SSW 4.8 km/h 8 km/h 78% 0 mm 0 W/m2
03:40 16 °C 12.2 °C 1022.6 hPa SSW 4.8 km/h 8 km/h 78% 0 mm 0 W/m2
03:50 15.9 °C 12.1 °C 1022.2 hPa SSW 3.2 km/h 9.7 km/h 78% 0 mm 0 W/m2
04:00 15.8 °C 11.9 °C 1022.6 hPa WSW 1.6 km/h 6.4 km/h 78% 0 mm 0 W/m2
04:10 15.7 °C 12.1 °C 1022.6 hPa ENE 1.6 km/h 3.2 km/h 79% 0 mm 0 W/m2
04:20 15.7 °C 12.1 °C 1022.6 hPa SW 3.2 km/h 4.8 km/h 79% 0 mm 0 W/m2
04:30 15.6 °C 11.9 °C 1022.6 hPa West 1.6 km/h 4.8 km/h 79% 0 mm 0 W/m2
04:40 15.6 °C 11.9 °C 1022.6 hPa Calm   3.2 km/h 79% 0 mm 0 W/m2
04:50 15.5 °C 12.1 °C 1022.9 hPa SW 1.6 km/h 6.4 km/h 80% 0 mm 0 W/m2
05:00 15.4 °C 11.9 °C 1023.2 hPa Calm   1.6 km/h 80% 0 mm 3 W/m2
05:10 15.3 °C 11.9 °C 1023.2 hPa NE 1.6 km/h 3.2 km/h 80% 0 mm 6 W/m2
05:20 15.2 °C 11.9 °C 1023.2 hPa Calm   3.2 km/h 81% 0 mm 10 W/m2
05:30 15.2 °C 11.9 °C 1023.2 hPa SSW 1.6 km/h 6.4 km/h 81% 0 mm 17 W/m2
05:40 15.1 °C 12.2 °C 1023.2 hPa WSW 3.2 km/h 8 km/h 83% 0 mm 19 W/m2
05:50 15.1 °C 12.2 °C 1023.2 hPa SW 1.6 km/h 6.4 km/h 83% 0 mm 23 W/m2
06:00 15.1 °C 12.2 °C 1023.2 hPa Calm   3.2 km/h 83% 0 mm 27 W/m2
06:10 15.1 °C 12.2 °C 1023.6 hPa Calm   3.2 km/h 83% 0 mm 41 W/m2
06:20 15.2 °C 12.3 °C 1023.6 hPa ESE 3.2 km/h 8 km/h 83% 0 mm 51 W/m2
06:30 15.3 °C 12.4 °C 1023.6 hPa South 1.6 km/h 6.4 km/h 83% 0 mm 54 W/m2
06:40 15.4 °C 12.7 °C 1024.3 hPa West 1.6 km/h 4.8 km/h 84% 0 mm 83 W/m2
06:50 15.5 °C 12.8 °C 1024.3 hPa Calm   3.2 km/h 84% 0 mm 122 W/m2
07:00 15.6 °C 12.7 °C 1024.3 hPa Calm   3.2 km/h 83% 0 mm 118 W/m2
07:10 15.7 °C 12.8 °C 1024.3 hPa West 1.6 km/h 4.8 km/h 83% 0 mm 128 W/m2
07:20 15.9 °C 13 °C 1024.3 hPa South 3.2 km/h 6.4 km/h 83% 0 mm 135 W/m2
07:30 16 °C 13.1 °C 1024.3 hPa SSW 3.2 km/h 4.8 km/h 83% 0 mm 174 W/m2
07:40 16.1 °C 13.2 °C 1024.3 hPa SSW 3.2 km/h 4.8 km/h 83% 0 mm 208 W/m2
07:50 16.4 °C 13.1 °C 1024.3 hPa SSE 4.8 km/h 8 km/h 81% 0 mm 228 W/m2
08:00 16.6 °C 13.3 °C 1024.3 hPa South 3.2 km/h 8 km/h 81% 0 mm 234 W/m2
08:10 16.8 °C 13.3 °C 1024.6 hPa South 1.6 km/h 8 km/h 80% 0 mm 266 W/m2
08:20 17 °C 13.5 °C 1026 hPa South 3.2 km/h 8 km/h 80% 0 mm 412 W/m2
08:30 17.2 °C 13.6 °C 1026 hPa South 4.8 km/h 12.9 km/h 79% 0 mm 548 W/m2
08:40 17.5 °C 13.6 °C 1026 hPa SE 11.3 km/h 17.7 km/h 78% 0 mm 554 W/m2
08:50 17.7 °C 13.2 °C 1026 hPa SSW 4.8 km/h 11.3 km/h 75% 0 mm 564 W/m2
09:00 18.4 °C 13.9 °C 1026 hPa SSW 3.2 km/h 6.4 km/h 75% 0 mm 570 W/m2
09:10 18.9 °C 13.9 °C 1026 hPa South 1.6 km/h 8 km/h 73% 0 mm 628 W/m2
09:20 19.3 °C 13.7 °C 1026 hPa SW 4.8 km/h 8 km/h 70% 0 mm 607 W/m2
09:30 19.6 °C 13.8 °C 1025.6 hPa Calm   8 km/h 69% 0 mm 639 W/m2
09:40 20 °C 13.9 °C 1025.6 hPa SSE 4.8 km/h 12.9 km/h 68% 0 mm 739 W/m2
09:50 20.3 °C 14.2 °C 1025.3 hPa SSE 1.6 km/h 11.3 km/h 68% 0 mm 784 W/m2
10:00 20.5 °C 14.2 °C 1025.3 hPa WSW 1.6 km/h 11.3 km/h 67% 0 mm 802 W/m2
10:10 20.8 °C 14.4 °C 1025.3 hPa West 4.8 km/h 9.7 km/h 67% 0 mm 825 W/m2
10:20 21.3 °C 14.4 °C 1025.3 hPa WSW 8 km/h 12.9 km/h 65% 0 mm 844 W/m2
10:30 21.6 °C 14.7 °C 1025.3 hPa WSW 3.2 km/h 11.3 km/h 65% 0 mm 739 W/m2
10:40 21.7 °C 14.3 °C 1024.9 hPa West 3.2 km/h 11.3 km/h 63% 0 mm 368 W/m2
10:50 22 °C 14.9 °C 1024.9 hPa WSW 4.8 km/h 9.7 km/h 64% 0 mm 392 W/m2
11:00 22 °C 14.6 °C 1024.9 hPa WNW 1.6 km/h 8 km/h 63% 0 mm 323 W/m2
11:10 21.9 °C 14.6 °C 1024.9 hPa WSW 8 km/h 12.9 km/h 63% 0 mm 491 W/m2
11:20 22.1 °C 14.7 °C 1024.9 hPa SW 3.2 km/h 16.1 km/h 63% 0 mm 492 W/m2
11:30 22.1 °C 14.7 °C 1024.9 hPa SW 4.8 km/h 12.9 km/h 63% 0 mm 534 W/m2
11:40 22.2 °C 14.8 °C 1024.9 hPa WSW 1.6 km/h 12.9 km/h 63% 0 mm 852 W/m2
11:50 22.5 °C 15.1 °C 1024.6 hPa West 3.2 km/h 11.3 km/h 63% 0 mm 684 W/m2
12:00 22.8 °C 15.2 °C 1024.3 hPa South 4.8 km/h 11.3 km/h 62% 0 mm 956 W/m2
12:10 23.1 °C 14.6 °C 1024.3 hPa SW 4.8 km/h 11.3 km/h 59% 0 mm 402 W/m2
12:20 23.2 °C 15 °C 1024.3 hPa WSW 4.8 km/h 8 km/h 60% 0 mm 961 W/m2
12:30 23.6 °C 14.8 °C 1024.3 hPa WSW 1.6 km/h 9.7 km/h 58% 0 mm 636 W/m2
12:40 23.4 °C 14.9 °C 1023.9 hPa WSW 1.6 km/h 8 km/h 59% 0 mm 422 W/m2
12:50 23.4 °C 14.7 °C 1023.9 hPa Calm   9.7 km/h 58% 0 mm 664 W/m2
13:00 23.8 °C 15.3 °C 1023.9 hPa WSW 3.2 km/h 8 km/h 59% 0 mm 569 W/m2
13:10 24.1 °C 15.6 °C 1023.9 hPa SW 4.8 km/h 11.3 km/h 59% 0 mm 799 W/m2
13:20 24.1 °C 15.3 °C 1023.9 hPa WNW 4.8 km/h 11.3 km/h 58% 0 mm 406 W/m2
13:30 24 °C 15.5 °C 1023.9 hPa Calm   11.3 km/h 59% 0 mm 929 W/m2
13:40 24.5 °C 15.7 °C 1023.6 hPa WSW 3.2 km/h 9.7 km/h 58% 0 mm 796 W/m2
13:50 24.6 °C 15.5 °C 1023.6 hPa West 1.6 km/h 4.8 km/h 57% 0 mm 785 W/m2
14:00 25 °C 16.2 °C 1023.2 hPa WSW 3.2 km/h 9.7 km/h 58% 0 mm 846 W/m2
14:10 25.5 °C 16.3 °C 1023.2 hPa NE 8 km/h 12.9 km/h 57% 0 mm 839 W/m2
14:20 25.7 °C 16.6 °C 1023.2 hPa NW 1.6 km/h 4.8 km/h 57% 0 mm 652 W/m2
14:30 25.7 °C 16 °C 1023.2 hPa NNW 3.2 km/h 11.3 km/h 55% 0 mm 564 W/m2
14:40 25.7 °C 16.8 °C 1022.9 hPa North 1.6 km/h 9.7 km/h 58% 0 mm 825 W/m2
14:50 26 °C 16.3 °C 1022.9 hPa North 3.2 km/h 9.7 km/h 55% 0 mm 790 W/m2
15:00 26.1 °C 17.2 °C 1022.6 hPa Calm   8 km/h 58% 0 mm 537 W/m2
15:10 26.2 °C 17 °C 1022.6 hPa North 1.6 km/h 9.7 km/h 57% 0 mm 500 W/m2
15:20 26.1 °C 16.9 °C 1022.6 hPa NNW 1.6 km/h 8 km/h 57% 0 mm 445 W/m2
15:30 26.1 °C 17.2 °C 1022.2 hPa NNW 3.2 km/h 9.7 km/h 58% 0 mm 442 W/m2
15:40 26.1 °C 17.2 °C 1022.2 hPa North 4.8 km/h 11.3 km/h 58% 0 mm 297 W/m2
15:50 25.9 °C 17.6 °C 1022.2 hPa North 3.2 km/h 8 km/h 60% 0 mm 452 W/m2
16:00 25.9 °C 17.6 °C 1022.2 hPa North 4.8 km/h 11.3 km/h 60% 0 mm 443 W/m2
16:10 26 °C 17.4 °C 1022.2 hPa North 3.2 km/h 11.3 km/h 59% 0 mm 569 W/m2
16:20 26.2 °C 17.8 °C 1022.2 hPa North 3.2 km/h 11.3 km/h 60% 0 mm 579 W/m2
16:30 26.4 °C 18 °C 1022.2 hPa North 4.8 km/h 12.9 km/h 60% 0 mm 400 W/m2
16:40 26.3 °C 17.7 °C 1021.9 hPa North 8 km/h 14.5 km/h 59% 0 mm 256 W/m2
16:50 26.1 °C 17.7 °C 1021.9 hPa North 3.2 km/h 11.3 km/h 60% 0 mm 362 W/m2
17:00 26.2 °C 17.8 °C 1021.9 hPa North 8 km/h 12.9 km/h 60% 0 mm 437 W/m2
17:10 26.3 °C 17.9 °C 1021.9 hPa North 3.2 km/h 12.9 km/h 60% 0 mm 429 W/m2
17:20 26.3 °C 17.7 °C 1021.9 hPa North 4.8 km/h 11.3 km/h 59% 0 mm 398 W/m2
17:30 26.3 °C 17.9 °C 1021.9 hPa North 8 km/h 12.9 km/h 60% 0 mm 364 W/m2
17:40 26.2 °C 17.6 °C 1021.9 hPa North 3.2 km/h 11.3 km/h 59% 0 mm 204 W/m2
17:50 26 °C 17.6 °C 1021.9 hPa NNW 1.6 km/h 9.7 km/h 60% 0 mm 155 W/m2
18:00 25.8 °C 17.4 °C 1021.9 hPa NNW 4.8 km/h 12.9 km/h 60% 0 mm 240 W/m2
18:10 25.6 °C 17.3 °C 1021.9 hPa NNW 4.8 km/h 11.3 km/h 60% 0 mm 224 W/m2
18:20 25.4 °C 17.1 °C 1021.6 hPa NNW 8 km/h 11.3 km/h 60% 0 mm 146 W/m2
18:30 25.1 °C 17.3 °C 1021.6 hPa NNW 3.2 km/h 12.9 km/h 62% 0 mm 159 W/m2
18:40 25 °C 17.2 °C 1021.6 hPa NNW 4.8 km/h 11.3 km/h 62% 0 mm 142 W/m2
18:50 24.9 °C 17.1 °C 1021.6 hPa NNW 3.2 km/h 9.7 km/h 62% 0 mm 126 W/m2
19:00 24.8 °C 17 °C 1021.6 hPa WNW 1.6 km/h 8 km/h 62% 0 mm 101 W/m2
19:10 24.7 °C 17.2 °C 1021.6 hPa NNW 3.2 km/h 11.3 km/h 63% 0 mm 78 W/m2
19:20 24.4 °C 16.9 °C 1021.6 hPa NNW 1.6 km/h 11.3 km/h 63% 0 mm 56 W/m2
19:30 24.2 °C 16.9 °C 1021.6 hPa West 1.6 km/h 3.2 km/h 64% 0 mm 36 W/m2
19:40 23.9 °C 16.7 °C 1021.6 hPa NW 3.2 km/h 8 km/h 64% 0 mm 23 W/m2
19:50 23.5 °C 17 °C 1021.6 hPa WSW 1.6 km/h 3.2 km/h 67% 0 mm 8 W/m2
20:00 23.2 °C 16.9 °C 1021.6 hPa Calm   3.2 km/h 68% 0 mm 0 W/m2
20:10 22.8 °C 17 °C 1021.6 hPa SW 1.6 km/h 3.2 km/h 70% 0 mm 0 W/m2
20:20 22.1 °C 17.2 °C 1021.6 hPa South 1.6 km/h 4.8 km/h 74% 0 mm 0 W/m2
20:30 21.6 °C 17 °C 1021.6 hPa South 1.6 km/h 4.8 km/h 75% 0 mm 0 W/m2
20:40 21.3 °C 16.7 °C 1021.9 hPa SSW 1.6 km/h 4.8 km/h 75% 0 mm 0 W/m2
20:50 21 °C 16.8 °C 1021.9 hPa SSW 1.6 km/h 3.2 km/h 77% 0 mm 0 W/m2
21:00 20.6 °C 16.6 °C 1021.9 hPa SSW 1.6 km/h 4.8 km/h 78% 0 mm 0 W/m2
21:10 20.2 °C 16.2 °C 1021.9 hPa SW 3.2 km/h 4.8 km/h 78% 0 mm 0 W/m2
21:20 19.8 °C 16 °C 1021.9 hPa WSW 3.2 km/h 4.8 km/h 79% 0 mm 0 W/m2
21:30 19.4 °C 15.7 °C 1021.9 hPa West 3.2 km/h 4.8 km/h 79% 0 mm 0 W/m2
21:40 19.2 °C 15.6 °C 1021.9 hPa SW 1.6 km/h 4.8 km/h 80% 0 mm 0 W/m2
21:50 18.9 °C 15.3 °C 1022.2 hPa WSW 1.6 km/h 3.2 km/h 80% 0 mm 0 W/m2
22:00 18.7 °C 15.3 °C 1022.2 hPa SW 1.6 km/h 4.8 km/h 81% 0 mm 0 W/m2
22:10 18.4 °C 15.1 °C 1022.2 hPa WSW 3.2 km/h 4.8 km/h 81% 0 mm 0 W/m2
22:20 18.1 °C 15.2 °C 1022.2 hPa West 1.6 km/h 4.8 km/h 83% 0 mm 0 W/m2
22:30 17.9 °C 14.9 °C 1022.2 hPa WSW 1.6 km/h 3.2 km/h 83% 0 mm 0 W/m2
22:40 17.8 °C 15.1 °C 1022.2 hPa Calm   3.2 km/h 84% 0 mm 0 W/m2
22:50 17.6 °C 14.9 °C 1022.2 hPa Calm   3.2 km/h 84% 0 mm 0 W/m2
23:00 17.5 °C 14.9 °C 1022.2 hPa Calm   3.2 km/h 85% 0 mm 0 W/m2
23:10 17.5 °C 14.9 °C 1022.2 hPa Calm   3.2 km/h 85% 0 mm 0 W/m2
23:20 17.4 °C 14.8 °C 1022.2 hPa Calm   3.2 km/h 85% 0 mm 0 W/m2
23:30 17.3 °C 14.8 °C 1022.2 hPa Calm   3.2 km/h 85% 0 mm 0 W/m2
23:40 17.2 °C 14.6 °C 1022.2 hPa SE 1.6 km/h 6.4 km/h 85% 0 mm 0 W/m2
23:50 16.9 °C 14.6 °C 1022.2 hPa SSE 1.6 km/h 4.8 km/h 86% 0 mm 0 W/m2
Knjazevac, Serbia
Compliments of Weather Underground - 2 mb